createdAt,value
2022-08-28T00:00:42.516Z,23.03
2022-08-28T00:03:13.328Z,23.16
2022-08-28T00:05:41.792Z,23.14
2022-08-28T00:08:11.228Z,23.08
2022-08-28T00:10:42.077Z,23.14
2022-08-28T00:13:15.585Z,23.07
2022-08-28T00:15:42.609Z,23.10
2022-08-28T00:18:09.943Z,23.09
2022-08-28T00:20:38.758Z,23.07
2022-08-28T00:23:07.143Z,23.06
2022-08-28T00:25:35.061Z,23.06
2022-08-28T00:28:08.848Z,22.98
2022-08-28T00:30:46.841Z,23.05
2022-08-28T00:33:27.454Z,23.03
2022-08-28T00:35:55.878Z,22.96
2022-08-28T00:38:24.394Z,22.75
2022-08-28T00:40:55.743Z,22.76
2022-08-28T00:43:35.619Z,22.36
2022-08-28T00:46:05.844Z,22.43
2022-08-28T00:48:33.120Z,22.60
2022-08-28T00:51:21.752Z,22.66
2022-08-28T00:53:48.801Z,22.81
2022-08-28T00:56:18.667Z,22.46
2022-08-28T00:58:48.286Z,22.73
2022-08-28T01:01:16.013Z,22.71
2022-08-28T01:03:44.051Z,22.78
2022-08-28T01:06:14.907Z,22.80
2022-08-28T01:08:50.646Z,22.40
2022-08-28T01:11:19.702Z,21.70
2022-08-28T01:13:48.717Z,22.74
2022-08-28T01:16:18.769Z,22.27
2022-08-28T01:18:48.089Z,22.34
2022-08-28T01:21:32.648Z,22.76
2022-08-28T01:24:09.277Z,22.70
2022-08-28T01:26:38.532Z,22.69
2022-08-28T01:29:08.649Z,22.70
2022-08-28T01:31:36.770Z,22.54
2022-08-28T01:34:05.024Z,22.45
2022-08-28T01:36:32.387Z,22.62
2022-08-28T01:39:20.899Z,22.20
2022-08-28T01:41:52.251Z,22.46
2022-08-28T01:44:24.956Z,22.69
2022-08-28T01:46:54.570Z,22.54
2022-08-28T01:49:23.326Z,22.69
2022-08-28T01:51:50.379Z,21.68
2022-08-28T01:54:20.164Z,22.40
2022-08-28T01:56:47.959Z,22.11
2022-08-28T01:59:15.551Z,22.53
2022-08-28T02:01:43.649Z,22.63
2022-08-28T02:04:11.661Z,22.07
2022-08-28T02:06:39.197Z,22.37
2022-08-28T02:09:13.494Z,22.54
2022-08-28T02:11:46.571Z,22.24
2022-08-28T02:14:14.975Z,22.42
2022-08-28T02:16:41.987Z,21.83
2022-08-28T02:19:08.968Z,22.32
2022-08-28T02:21:35.952Z,21.90
2022-08-28T02:24:05.097Z,21.99
2022-08-28T02:26:33.615Z,22.51
2022-08-28T02:29:00.977Z,22.55
2022-08-28T02:31:28.503Z,22.47
2022-08-28T02:33:56.096Z,22.03
2022-08-28T02:36:24.122Z,22.37
2022-08-28T02:38:57.401Z,22.44
2022-08-28T02:41:25.249Z,22.53
2022-08-28T02:43:52.565Z,22.56
2022-08-28T02:46:19.582Z,22.09
2022-08-28T02:48:47.129Z,22.24
2022-08-28T02:51:14.912Z,22.42
2022-08-28T02:53:42.934Z,22.01
2022-08-28T02:56:26.148Z,22.48
2022-08-28T02:59:06.529Z,21.89
2022-08-28T03:01:34.450Z,22.39
2022-08-28T03:04:05.623Z,22.47
2022-08-28T03:06:33.525Z,22.01
2022-08-28T03:09:00.670Z,22.30
2022-08-28T03:11:27.748Z,22.16
2022-08-28T03:13:55.710Z,21.99
2022-08-28T03:16:22.941Z,22.09
2022-08-28T03:18:49.976Z,22.33
2022-08-28T03:21:17.487Z,21.77
2022-08-28T03:23:44.528Z,22.54
2022-08-28T03:26:19.081Z,22.55
2022-08-28T03:28:54.285Z,22.45
2022-08-28T03:31:25.342Z,22.51
2022-08-28T03:33:53.379Z,21.87
2022-08-28T03:36:28.024Z,22.69
2022-08-28T03:38:57.994Z,22.67
2022-08-28T03:41:29.311Z,22.69
2022-08-28T03:43:58.680Z,22.55
2022-08-28T03:46:27.759Z,22.54
2022-08-28T03:48:55.713Z,22.11
2022-08-28T03:51:29.971Z,22.65
2022-08-28T03:53:59.332Z,22.81
2022-08-28T03:56:28.485Z,22.19
2022-08-28T03:58:59.449Z,22.83
2022-08-28T04:01:26.714Z,22.56
2022-08-28T04:03:54.017Z,22.69
2022-08-28T04:06:21.098Z,22.90
2022-08-28T04:08:48.636Z,22.89
2022-08-28T04:11:15.790Z,22.42
2022-08-28T04:13:42.788Z,22.89
2022-08-28T04:16:13.814Z,22.70
2022-08-28T04:18:43.319Z,22.85
2022-08-28T04:21:17.936Z,22.89
2022-08-28T04:23:47.622Z,22.71
2022-08-28T04:26:18.663Z,22.76
2022-08-28T04:28:47.058Z,22.80
2022-08-28T04:31:15.108Z,22.87
2022-08-28T04:33:42.506Z,22.85
2022-08-28T04:36:15.786Z,23.03
2022-08-28T04:38:44.242Z,22.93
2022-08-28T04:41:13.744Z,22.86
2022-08-28T04:43:40.950Z,23.06
2022-08-28T04:48:36.673Z,23.15
2022-08-28T04:51:07.327Z,23.12
2022-08-28T04:53:34.711Z,22.70
2022-08-28T04:56:04.973Z,23.18
2022-08-28T04:58:34.225Z,23.08
2022-08-28T05:01:11.410Z,23.21
2022-08-28T05:03:39.307Z,23.11
2022-08-28T05:06:06.725Z,22.89
2022-08-28T05:08:34.404Z,22.99
2022-08-28T05:11:22.083Z,22.78
2022-08-28T05:14:04.654Z,23.37
2022-08-28T05:16:33.290Z,23.41
2022-08-28T05:19:01.360Z,23.34
2022-08-28T05:21:28.792Z,23.33
2022-08-28T05:23:57.656Z,23.45
2022-08-28T05:26:26.800Z,23.38
2022-08-28T05:28:56.614Z,23.55
2022-08-28T05:31:24.597Z,23.56
2022-08-28T05:33:52.948Z,23.66
2022-08-28T05:36:23.386Z,23.53
2022-08-28T05:38:57.350Z,23.64
2022-08-28T05:41:27.310Z,23.59
2022-08-28T05:43:54.388Z,23.63
2022-08-28T05:46:23.300Z,23.46
2022-08-28T05:48:50.481Z,23.41
2022-08-28T05:51:20.421Z,23.84
2022-08-28T05:53:50.460Z,23.36
2022-08-28T05:56:22.225Z,23.44
2022-08-28T05:58:50.283Z,23.71
2022-08-28T06:01:20.644Z,23.97
2022-08-28T06:04:00.345Z,23.86
2022-08-28T06:06:30.042Z,23.99
2022-08-28T06:09:02.099Z,23.83
2022-08-28T06:11:30.687Z,24.09
2022-08-28T06:14:02.405Z,23.97
2022-08-28T06:16:31.185Z,24.07
2022-08-28T06:18:58.766Z,23.86
2022-08-28T06:21:26.226Z,24.25
2022-08-28T06:23:53.298Z,24.39
2022-08-28T06:26:20.948Z,23.84
2022-08-28T06:28:47.969Z,24.18
2022-08-28T06:31:24.382Z,24.62
2022-08-28T06:33:54.383Z,24.51
2022-08-28T06:36:22.179Z,24.44
2022-08-28T06:38:49.247Z,24.81
2022-08-28T06:41:16.749Z,25.16
2022-08-28T06:43:43.719Z,25.45
2022-08-28T06:46:10.822Z,25.61
2022-08-28T06:48:38.151Z,25.78
2022-08-28T06:51:10.814Z,26.00
2022-08-28T06:53:40.313Z,26.23
2022-08-28T06:56:26.618Z,26.24
2022-08-28T06:58:56.939Z,26.45
2022-08-28T07:01:29.477Z,26.59
2022-08-28T07:04:00.776Z,26.68
2022-08-28T07:06:30.995Z,26.73
2022-08-28T07:08:57.970Z,26.57
2022-08-28T07:11:28.997Z,26.96
2022-08-28T07:13:57.551Z,27.05
2022-08-28T07:16:28.209Z,27.16
2022-08-28T07:18:55.708Z,27.50
2022-08-28T07:21:22.884Z,27.26
2022-08-28T07:23:50.357Z,27.50
2022-08-28T07:26:22.627Z,27.76
2022-08-28T07:28:51.191Z,27.89
2022-08-28T07:31:22.610Z,27.60
2022-08-28T07:33:53.529Z,27.74
2022-08-28T07:36:29.388Z,28.20
2022-08-28T07:38:59.581Z,28.09
2022-08-28T07:41:30.440Z,28.05
2022-08-28T07:44:16.513Z,28.11
2022-08-28T07:46:44.670Z,28.15
2022-08-28T07:49:13.543Z,28.00
2022-08-28T07:51:40.654Z,27.72
2022-08-28T07:54:11.205Z,27.80
2022-08-28T07:56:44.334Z,27.88
2022-08-28T07:59:12.090Z,27.99
2022-08-28T08:01:46.901Z,28.17
2022-08-28T08:04:18.566Z,28.01
2022-08-28T08:06:45.766Z,28.14
2022-08-28T08:09:15.875Z,28.23
2022-08-28T08:11:43.216Z,27.87
2022-08-28T08:14:12.095Z,28.46
2022-08-28T08:16:43.637Z,28.31
2022-08-28T08:19:15.478Z,28.10
2022-08-28T08:21:44.584Z,28.31
2022-08-28T08:24:19.766Z,28.45
2022-08-28T08:26:56.527Z,28.39
2022-08-28T08:29:35.981Z,28.22
2022-08-28T08:32:08.166Z,28.40
2022-08-28T08:34:38.887Z,27.87
2022-08-28T08:37:06.712Z,28.24
2022-08-28T08:39:35.300Z,28.18
2022-08-28T08:42:05.206Z,28.11
2022-08-28T08:44:45.583Z,28.38
2022-08-28T08:47:22.542Z,27.87
2022-08-28T08:49:55.351Z,28.52
2022-08-28T08:52:22.466Z,28.52
2022-08-28T08:55:02.595Z,28.51
2022-08-28T08:57:32.075Z,28.48
2022-08-28T09:00:00.061Z,28.54
2022-08-28T09:02:33.817Z,28.56
2022-08-28T09:05:12.611Z,28.95
2022-08-28T09:08:02.764Z,28.60
2022-08-28T09:10:39.842Z,29.22
2022-08-28T09:13:11.550Z,28.76
2022-08-28T09:15:49.958Z,29.46
2022-08-28T09:18:33.568Z,28.67
2022-08-28T09:21:00.700Z,29.51
2022-08-28T09:23:29.865Z,29.64
2022-08-28T09:26:02.476Z,29.78
2022-08-28T09:28:29.589Z,29.99
2022-08-28T09:31:00.943Z,30.08
2022-08-28T09:33:56.654Z,30.22
2022-08-28T09:36:38.979Z,29.70
2022-08-28T09:39:18.491Z,30.23
2022-08-28T09:42:15.712Z,30.18
2022-08-28T09:44:51.287Z,29.94
2022-08-28T09:47:36.873Z,30.11
2022-08-28T09:50:34.761Z,30.16
2022-08-28T09:53:11.772Z,30.09
2022-08-28T09:55:57.935Z,29.67
2022-08-28T09:58:32.942Z,30.06
2022-08-28T10:01:27.379Z,29.73
2022-08-28T10:04:38.171Z,30.32
2022-08-28T10:07:24.717Z,29.93
2022-08-28T10:10:06.540Z,30.12
2022-08-28T10:13:01.540Z,30.45
2022-08-28T10:15:49.626Z,30.50
2022-08-28T10:18:35.609Z,30.71
2022-08-28T10:21:05.455Z,30.71
2022-08-28T10:23:46.271Z,30.69
2022-08-28T10:26:25.322Z,30.11
2022-08-28T10:29:08.080Z,30.54
2022-08-28T10:31:58.062Z,30.70
2022-08-28T10:34:54.840Z,30.73
2022-08-28T10:38:02.927Z,30.80
2022-08-28T10:40:36.346Z,30.71
2022-08-28T10:43:14.843Z,30.85
2022-08-28T10:45:43.527Z,30.23
2022-08-28T10:48:22.625Z,30.82
2022-08-28T10:50:56.297Z,30.91
2022-08-28T10:53:38.668Z,30.95
2022-08-28T10:56:10.911Z,30.93
2022-08-28T10:58:41.273Z,30.78
2022-08-28T11:01:33.339Z,31.12
2022-08-28T11:04:03.038Z,30.81
2022-08-28T11:06:42.257Z,31.10
2022-08-28T11:09:28.007Z,31.05
2022-08-28T11:12:28.703Z,30.77
2022-08-28T11:14:55.941Z,30.86
2022-08-28T11:17:23.054Z,30.97
2022-08-28T11:19:54.398Z,30.20
2022-08-28T11:22:25.820Z,30.63
2022-08-28T11:25:13.202Z,31.05
2022-08-28T11:28:00.827Z,31.29
2022-08-28T11:30:35.682Z,31.44
2022-08-28T11:33:06.828Z,31.07
2022-08-28T11:35:42.305Z,31.50
2022-08-28T11:38:10.404Z,31.35
2022-08-28T11:40:50.017Z,31.44
2022-08-28T11:43:18.916Z,31.28
2022-08-28T11:45:47.076Z,31.25
2022-08-28T11:48:36.357Z,31.34
2022-08-28T11:51:23.311Z,31.00
2022-08-28T11:54:20.063Z,31.17
2022-08-28T11:56:53.707Z,30.88
2022-08-28T11:59:35.748Z,31.04
2022-08-28T12:02:32.125Z,31.15
2022-08-28T12:04:59.512Z,30.88
2022-08-28T12:07:34.890Z,30.93
2022-08-28T12:10:05.188Z,30.79
2022-08-28T12:12:47.471Z,30.95
2022-08-28T12:15:41.860Z,30.97
2022-08-28T12:18:12.081Z,30.46
2022-08-28T12:20:51.413Z,30.95
2022-08-28T12:23:24.193Z,30.94
2022-08-28T12:26:19.107Z,30.88
2022-08-28T12:28:54.828Z,30.23
2022-08-28T12:32:15.010Z,30.95
2022-08-28T12:34:45.480Z,30.79
2022-08-28T12:37:30.807Z,31.03
2022-08-28T12:40:21.269Z,31.16
2022-08-28T12:43:04.057Z,31.07
2022-08-28T12:45:38.391Z,31.07
2022-08-28T12:48:33.652Z,31.24
2022-08-28T12:51:13.416Z,31.16
2022-08-28T12:53:46.571Z,30.98
2022-08-28T12:56:17.991Z,31.28
2022-08-28T12:58:46.351Z,30.98
2022-08-28T13:01:31.808Z,30.90
2022-08-28T13:04:01.638Z,31.34
2022-08-28T13:06:34.055Z,31.51
2022-08-28T13:09:02.294Z,31.37
2022-08-28T13:11:45.904Z,31.19
2022-08-28T13:14:13.035Z,31.45
2022-08-28T13:16:43.870Z,31.54
2022-08-28T13:19:29.124Z,31.54
2022-08-28T13:22:00.609Z,31.54
2022-08-28T13:24:44.352Z,30.93
2022-08-28T13:27:19.386Z,31.56
2022-08-28T13:30:14.025Z,31.54
2022-08-28T13:32:40.998Z,30.70
2022-08-28T13:35:28.288Z,31.43
2022-08-28T13:37:58.084Z,31.43
2022-08-28T13:43:23.091Z,31.09
2022-08-28T13:45:50.653Z,30.92
2022-08-28T13:48:25.755Z,31.44
2022-08-28T13:50:59.055Z,31.41
2022-08-28T13:53:26.075Z,31.38
2022-08-28T13:55:53.396Z,31.33
2022-08-28T13:58:20.424Z,31.16
2022-08-28T14:00:50.682Z,31.25
2022-08-28T14:03:38.014Z,31.23
2022-08-28T14:06:14.261Z,31.13
2022-08-28T14:08:41.997Z,31.39
2022-08-28T14:11:12.679Z,31.05
2022-08-28T14:13:47.020Z,31.07
2022-08-28T14:16:25.547Z,30.76
2022-08-28T14:18:53.346Z,31.04
2022-08-28T14:21:21.756Z,30.98
2022-08-28T14:23:49.343Z,30.58
2022-08-28T14:26:16.502Z,31.00
2022-08-28T14:28:43.816Z,30.92
2022-08-28T14:31:14.384Z,30.50
2022-08-28T14:33:45.113Z,30.43
2022-08-28T14:36:26.439Z,30.78
2022-08-28T14:38:55.379Z,30.35
2022-08-28T14:41:23.980Z,30.36
2022-08-28T14:43:52.236Z,30.36
2022-08-28T14:46:28.703Z,30.76
2022-08-28T14:49:09.133Z,30.71
2022-08-28T14:51:38.291Z,30.61
2022-08-28T14:54:06.256Z,30.47
2022-08-28T14:56:33.497Z,30.39
2022-08-28T14:59:01.758Z,30.48
2022-08-28T15:01:36.657Z,30.49
2022-08-28T15:04:11.199Z,30.30
2022-08-28T15:06:38.993Z,30.38
2022-08-28T15:09:06.255Z,30.38
2022-08-28T15:11:35.459Z,30.29
2022-08-28T15:14:02.418Z,30.24
2022-08-28T15:16:32.630Z,30.18
2022-08-28T15:19:00.991Z,29.39
2022-08-28T15:21:35.491Z,30.27
2022-08-28T15:24:05.341Z,30.13
2022-08-28T15:26:32.858Z,30.09
2022-08-28T15:29:03.814Z,30.11
2022-08-28T15:31:33.388Z,30.03
2022-08-28T15:34:13.641Z,29.88
2022-08-28T15:36:42.426Z,29.92
2022-08-28T15:39:28.934Z,29.88
2022-08-28T15:41:56.513Z,29.74
2022-08-28T15:44:23.509Z,29.73
2022-08-28T15:46:53.917Z,28.45
2022-08-28T15:49:23.728Z,29.44
2022-08-28T15:51:51.077Z,29.30
2022-08-28T15:54:18.690Z,29.46
2022-08-28T15:56:46.346Z,29.38
2022-08-28T15:59:17.792Z,29.28
2022-08-28T16:01:45.675Z,29.20
2022-08-28T16:04:13.707Z,29.09
2022-08-28T16:06:42.012Z,29.11
2022-08-28T16:09:10.160Z,29.05
2022-08-28T16:11:38.711Z,28.95
2022-08-28T16:14:07.649Z,28.86
2022-08-28T16:16:34.706Z,28.87
2022-08-28T16:19:01.896Z,28.42
2022-08-28T16:21:29.294Z,28.36
2022-08-28T16:23:56.367Z,28.56
2022-08-28T16:26:24.320Z,28.37
2022-08-28T16:28:51.381Z,28.55
2022-08-28T16:31:20.409Z,28.11
2022-08-28T16:33:49.788Z,27.97
2022-08-28T16:36:18.703Z,27.86
2022-08-28T16:38:49.681Z,28.39
2022-08-28T16:41:27.614Z,28.22
2022-08-28T16:43:56.274Z,27.70
2022-08-28T16:46:26.802Z,27.66
2022-08-28T16:48:54.606Z,28.10
2022-08-28T16:51:22.130Z,28.06
2022-08-28T16:53:49.127Z,28.07
2022-08-28T16:56:18.008Z,28.01
2022-08-28T16:58:45.994Z,27.84
2022-08-28T17:01:13.721Z,27.87
2022-08-28T17:03:42.400Z,27.90
2022-08-28T17:06:21.741Z,27.87
2022-08-28T17:08:51.335Z,27.74
2022-08-28T17:11:21.191Z,27.77
2022-08-28T17:13:51.179Z,27.24
2022-08-28T17:16:19.545Z,27.57
2022-08-28T17:18:51.979Z,27.57
2022-08-28T17:21:40.385Z,27.66
2022-08-28T17:24:08.752Z,27.58
2022-08-28T17:26:35.892Z,27.53
2022-08-28T17:29:03.941Z,27.11
2022-08-28T17:31:31.550Z,27.50
2022-08-28T17:33:58.803Z,27.11
2022-08-28T17:36:34.085Z,27.13
2022-08-28T17:39:04.245Z,27.31
2022-08-28T17:41:33.634Z,27.44
2022-08-28T17:44:02.013Z,27.34
2022-08-28T17:46:31.817Z,26.92
2022-08-28T17:49:03.413Z,27.41
2022-08-28T17:51:42.729Z,27.23
2022-08-28T17:54:21.693Z,27.37
2022-08-28T17:56:49.912Z,26.78
2022-08-28T17:59:17.556Z,27.09
2022-08-28T18:01:46.960Z,27.41
2022-08-28T18:04:17.964Z,27.40
2022-08-28T18:06:47.874Z,26.92
2022-08-28T18:09:15.220Z,27.27
2022-08-28T18:11:43.525Z,27.32
2022-08-28T18:14:11.195Z,27.31
2022-08-28T18:16:38.778Z,27.29
2022-08-28T18:19:08.960Z,27.29
2022-08-28T18:21:37.632Z,27.36
2022-08-28T18:24:05.243Z,27.39
2022-08-28T18:26:32.393Z,27.35
2022-08-28T18:28:59.576Z,27.25
2022-08-28T18:31:26.855Z,27.30
2022-08-28T18:33:54.589Z,27.28
2022-08-28T18:36:23.483Z,27.37
2022-08-28T18:38:51.094Z,27.22
2022-08-28T18:41:20.538Z,26.89
2022-08-28T18:43:48.081Z,27.19
2022-08-28T18:46:15.234Z,26.19
2022-08-28T18:48:42.956Z,27.15
2022-08-28T18:51:12.242Z,27.26
2022-08-28T18:53:42.365Z,27.37
2022-08-28T18:56:12.394Z,27.11
2022-08-28T18:58:41.154Z,27.34
2022-08-28T19:01:09.719Z,27.19
2022-08-28T19:03:37.391Z,27.22
2022-08-28T19:06:06.432Z,27.13
2022-08-28T19:08:36.851Z,27.06
2022-08-28T19:11:10.116Z,26.93
2022-08-28T19:13:37.393Z,26.68
2022-08-28T19:16:05.382Z,27.19
2022-08-28T19:18:32.572Z,27.21
2022-08-28T19:21:16.332Z,27.22
2022-08-28T19:23:44.585Z,27.21
2022-08-28T19:26:25.312Z,26.79
2022-08-28T19:28:53.750Z,27.15
2022-08-28T19:31:22.591Z,27.23
2022-08-28T19:33:49.711Z,26.84
2022-08-28T19:36:18.670Z,26.94
2022-08-28T19:38:45.904Z,27.19
2022-08-28T19:41:13.375Z,27.14
2022-08-28T19:43:42.858Z,27.12
2022-08-28T19:46:19.601Z,26.86
2022-08-28T19:48:52.543Z,27.03
2022-08-28T19:51:23.906Z,27.02
2022-08-28T19:53:57.182Z,27.13
2022-08-28T19:56:30.003Z,27.09
2022-08-28T19:58:59.400Z,26.96
2022-08-28T20:01:32.958Z,27.05
2022-08-28T20:04:01.421Z,26.96
2022-08-28T20:06:32.282Z,26.86
2022-08-28T20:09:00.495Z,26.91
2022-08-28T20:11:30.160Z,26.83
2022-08-28T20:14:04.430Z,27.02
2022-08-28T20:16:35.836Z,26.89
2022-08-28T20:19:07.899Z,27.00
2022-08-28T20:21:37.126Z,26.95
2022-08-28T20:24:11.950Z,26.46
2022-08-28T20:26:40.212Z,26.44
2022-08-28T20:29:08.740Z,26.85
2022-08-28T20:31:40.565Z,26.68
2022-08-28T20:34:09.769Z,26.83
2022-08-28T20:36:37.252Z,26.64
2022-08-28T20:39:07.260Z,26.19
2022-08-28T20:41:34.703Z,26.72
2022-08-28T20:44:05.070Z,26.62
2022-08-28T20:46:38.523Z,26.64
2022-08-28T20:49:12.556Z,25.92
2022-08-28T20:51:56.556Z,26.54
2022-08-28T20:54:38.873Z,26.44
2022-08-28T20:57:12.731Z,26.40
2022-08-28T20:59:42.241Z,26.32
2022-08-28T21:02:17.225Z,26.11
2022-08-28T21:08:15.493Z,25.72
2022-08-28T21:10:45.053Z,26.19
2022-08-28T21:13:13.103Z,26.12
2022-08-28T21:15:41.163Z,25.67
2022-08-28T21:18:10.077Z,25.97
2022-08-28T21:20:39.257Z,25.88
2022-08-28T21:23:07.114Z,26.03
2022-08-28T21:25:34.187Z,25.91
2022-08-28T21:28:04.161Z,25.77
2022-08-28T21:30:31.912Z,25.86
2022-08-28T21:32:59.141Z,25.42
2022-08-28T21:35:26.368Z,25.80
2022-08-28T21:37:53.550Z,25.56
2022-08-28T21:40:20.757Z,25.65
2022-08-28T21:42:47.801Z,25.55
2022-08-28T21:45:14.950Z,25.43
2022-08-28T21:47:42.660Z,25.37
2022-08-28T21:50:10.998Z,25.34
2022-08-28T21:52:38.190Z,25.42
2022-08-28T21:55:09.606Z,25.36
2022-08-28T21:57:36.855Z,25.34
2022-08-28T22:00:09.425Z,25.27
2022-08-28T22:02:36.497Z,25.24
2022-08-28T22:05:04.033Z,25.17
2022-08-28T22:07:31.226Z,25.00
2022-08-28T22:09:58.328Z,24.94
2022-08-28T22:12:25.388Z,25.09
2022-08-28T22:14:52.526Z,24.89
2022-08-28T22:17:19.533Z,24.98
2022-08-28T22:19:46.954Z,24.88
2022-08-28T22:22:53.300Z,24.78
2022-08-28T22:25:20.400Z,24.88
2022-08-28T22:27:47.362Z,24.63
2022-08-28T22:30:14.533Z,24.76
2022-08-28T22:32:41.523Z,24.22
2022-08-28T22:35:10.790Z,24.79
2022-08-28T22:37:38.151Z,24.52
2022-08-28T22:40:13.136Z,24.74
2022-08-28T22:42:41.321Z,24.59
2022-08-28T22:45:09.699Z,24.50
2022-08-28T22:47:37.014Z,24.61
2022-08-28T22:50:04.810Z,24.63
2022-08-28T22:52:32.505Z,24.42
2022-08-28T22:54:59.571Z,24.45
2022-08-28T22:57:26.871Z,24.15
2022-08-28T22:59:54.094Z,24.14
2022-08-28T23:02:21.826Z,24.35
2022-08-28T23:04:54.559Z,24.28
2022-08-28T23:07:22.421Z,24.23
2022-08-28T23:09:49.505Z,24.21
2022-08-28T23:12:16.828Z,24.28
2022-08-28T23:14:48.219Z,24.23
2022-08-28T23:17:17.013Z,24.11
2022-08-28T23:19:44.384Z,23.92
2022-08-28T23:22:13.614Z,24.08
2022-08-28T23:24:40.707Z,23.97
2022-08-28T23:27:34.317Z,23.53
2022-08-28T23:29:55.944Z,24.02
2022-08-28T23:32:23.258Z,23.40
2022-08-28T23:34:51.216Z,23.65
2022-08-28T23:37:18.288Z,23.64
2022-08-28T23:39:45.457Z,23.72
2022-08-28T23:42:12.463Z,23.71
2022-08-28T23:44:39.438Z,23.24
2022-08-28T23:47:06.581Z,23.69
2022-08-28T23:49:34.345Z,23.66
2022-08-28T23:52:10.112Z,23.66
2022-08-28T23:54:37.266Z,23.03
2022-08-28T23:57:05.409Z,23.65
2022-08-28T23:59:32.810Z,23.08
